sensor_id;sensor_type;location;lat;lon;timestamp;pressure;altitude;pressure_sealevel;temperature;humidity
39729;BME280;25402;42.004;23.088;2022-07-23T00:02:12;97628.91;;;18.70;33.15
39729;BME280;25402;42.004;23.088;2022-07-23T00:04:39;97630.31;;;18.61;33.20
39729;BME280;25402;42.004;23.088;2022-07-23T00:07:06;97642.34;;;18.60;33.06
39729;BME280;25402;42.004;23.088;2022-07-23T00:09:32;97641.72;;;18.58;33.11
39729;BME280;25402;42.004;23.088;2022-07-23T00:11:59;97652.22;;;18.61;33.15
39729;BME280;25402;42.004;23.088;2022-07-23T00:14:25;97613.81;;;18.38;33.08
39729;BME280;25402;42.004;23.088;2022-07-23T00:16:52;97631.22;;;18.44;33.17
39729;BME280;25402;42.004;23.088;2022-07-23T00:19:18;97648.41;;;18.51;33.14
39729;BME280;25402;42.004;23.088;2022-07-23T00:21:45;97650.78;;;18.47;33.21
39729;BME280;25402;42.004;23.088;2022-07-23T00:24:12;97649.09;;;18.46;33.09
39729;BME280;25402;42.004;23.088;2022-07-23T00:26:38;97645.13;;;18.42;33.72
39729;BME280;25402;42.004;23.088;2022-07-23T00:29:05;97614.47;;;18.22;33.59
39729;BME280;25402;42.004;23.088;2022-07-23T00:31:31;97649.88;;;18.35;33.60
39729;BME280;25402;42.004;23.088;2022-07-23T00:33:58;97650.34;;;18.32;33.89
39729;BME280;25402;42.004;23.088;2022-07-23T00:36:26;97645.56;;;18.27;33.56
39729;BME280;25402;42.004;23.088;2022-07-23T00:38:54;97656.38;;;18.22;33.62
39729;BME280;25402;42.004;23.088;2022-07-23T00:41:20;97637.53;;;18.14;34.13
39729;BME280;25402;42.004;23.088;2022-07-23T00:43:46;97639.31;;;18.09;33.82
39729;BME280;25402;42.004;23.088;2022-07-23T00:46:13;97639.41;;;18.02;34.15
39729;BME280;25402;42.004;23.088;2022-07-23T00:48:39;97640.09;;;17.97;34.21
39729;BME280;25402;42.004;23.088;2022-07-23T00:51:06;97646.50;;;17.91;34.26
39729;BME280;25402;42.004;23.088;2022-07-23T00:53:32;97640.66;;;17.88;34.42
39729;BME280;25402;42.004;23.088;2022-07-23T00:56:00;97643.47;;;17.81;34.55
39729;BME280;25402;42.004;23.088;2022-07-23T00:58:27;97651.91;;;17.80;34.46
39729;BME280;25402;42.004;23.088;2022-07-23T01:00:54;97645.19;;;17.76;34.66
39729;BME280;25402;42.004;23.088;2022-07-23T01:03:20;97615.97;;;17.58;34.49
39729;BME280;25402;42.004;23.088;2022-07-23T01:05:47;97620.97;;;17.61;34.68
39729;BME280;25402;42.004;23.088;2022-07-23T01:08:14;97637.28;;;17.67;34.98
39729;BME280;25402;42.004;23.088;2022-07-23T01:10:42;97649.53;;;17.65;34.80
39729;BME280;25402;42.004;23.088;2022-07-23T01:13:10;97645.66;;;17.54;35.07
39729;BME280;25402;42.004;23.088;2022-07-23T01:15:38;97647.56;;;17.54;35.20
39729;BME280;25402;42.004;23.088;2022-07-23T01:18:06;97649.47;;;17.53;34.97
39729;BME280;25402;42.004;23.088;2022-07-23T01:20:33;97650.13;;;17.49;35.01
39729;BME280;25402;42.004;23.088;2022-07-23T01:23:01;97646.03;;;17.40;35.42
39729;BME280;25402;42.004;23.088;2022-07-23T01:25:28;97646.94;;;17.33;35.40
39729;BME280;25402;42.004;23.088;2022-07-23T01:27:58;97650.16;;;17.30;35.30
39729;BME280;25402;42.004;23.088;2022-07-23T01:30:25;97634.88;;;17.23;35.69
39729;BME280;25402;42.004;23.088;2022-07-23T01:32:53;97650.00;;;17.25;35.50
39729;BME280;25402;42.004;23.088;2022-07-23T01:35:20;97638.13;;;17.13;35.71
39729;BME280;25402;42.004;23.088;2022-07-23T01:37:47;97653.00;;;17.17;35.91
39729;BME280;25402;42.004;23.088;2022-07-23T01:40:14;97625.38;;;17.00;36.04
39729;BME280;25402;42.004;23.088;2022-07-23T01:42:41;97640.44;;;17.10;35.70
39729;BME280;25402;42.004;23.088;2022-07-23T01:45:08;97650.13;;;17.12;35.71
39729;BME280;25402;42.004;23.088;2022-07-23T01:47:35;97651.38;;;17.10;35.68
39729;BME280;25402;42.004;23.088;2022-07-23T01:50:01;97635.34;;;16.95;36.05
39729;BME280;25402;42.004;23.088;2022-07-23T01:52:28;97645.22;;;16.96;35.98
39729;BME280;25402;42.004;23.088;2022-07-23T01:54:55;97641.69;;;16.89;36.28
39729;BME280;25402;42.004;23.088;2022-07-23T01:57:22;97638.19;;;16.82;36.22
39729;BME280;25402;42.004;23.088;2022-07-23T01:59:49;97654.72;;;16.87;36.80
39729;BME280;25402;42.004;23.088;2022-07-23T02:02:15;97644.75;;;16.74;36.60
39729;BME280;25402;42.004;23.088;2022-07-23T02:04:41;97642.53;;;16.64;36.64
39729;BME280;25402;42.004;23.088;2022-07-23T02:07:08;97658.44;;;16.74;36.86
39729;BME280;25402;42.004;23.088;2022-07-23T02:09:35;97658.97;;;16.58;36.93
39729;BME280;25402;42.004;23.088;2022-07-23T02:12:01;97665.50;;;16.57;36.91
39729;BME280;25402;42.004;23.088;2022-07-23T02:14:31;97650.44;;;16.48;37.03
39729;BME280;25402;42.004;23.088;2022-07-23T02:16:58;97666.63;;;16.49;37.43
39729;BME280;25402;42.004;23.088;2022-07-23T02:19:24;97665.59;;;16.44;37.09
39729;BME280;25402;42.004;23.088;2022-07-23T02:21:51;97660.38;;;16.36;37.20
39729;BME280;25402;42.004;23.088;2022-07-23T02:24:18;97660.19;;;16.30;37.50
39729;BME280;25402;42.004;23.088;2022-07-23T02:26:44;97666.72;;;16.29;37.29
39729;BME280;25402;42.004;23.088;2022-07-23T02:29:11;97675.75;;;16.30;37.38
39729;BME280;25402;42.004;23.088;2022-07-23T02:31:38;97678.88;;;16.33;37.11
39729;BME280;25402;42.004;23.088;2022-07-23T02:34:04;97667.56;;;16.23;37.21
39729;BME280;25402;42.004;23.088;2022-07-23T02:36:31;97656.94;;;16.15;37.39
39729;BME280;25402;42.004;23.088;2022-07-23T02:38:59;97683.19;;;16.16;37.64
39729;BME280;25402;42.004;23.088;2022-07-23T02:41:26;97667.66;;;16.10;37.50
39729;BME280;25402;42.004;23.088;2022-07-23T02:43:52;97681.53;;;16.09;37.44
39729;BME280;25402;42.004;23.088;2022-07-23T02:46:19;97639.25;;;15.86;37.63
39729;BME280;25402;42.004;23.088;2022-07-23T02:48:47;97688.22;;;16.13;37.36
39729;BME280;25402;42.004;23.088;2022-07-23T02:51:13;97692.41;;;16.15;37.65
39729;BME280;25402;42.004;23.088;2022-07-23T02:53:40;97695.34;;;16.14;37.41
39729;BME280;25402;42.004;23.088;2022-07-23T02:56:06;97694.53;;;16.07;37.86
39729;BME280;25402;42.004;23.088;2022-07-23T02:58:33;97703.13;;;16.10;37.98
39729;BME280;25402;42.004;23.088;2022-07-23T03:01:00;97688.91;;;16.02;37.61
39729;BME280;25402;42.004;23.088;2022-07-23T03:03:26;97700.84;;;16.07;37.89
39729;BME280;25402;42.004;23.088;2022-07-23T03:05:53;97708.84;;;16.02;37.71
39729;BME280;25402;42.004;23.088;2022-07-23T03:08:20;97705.72;;;15.98;37.89
39729;BME280;25402;42.004;23.088;2022-07-23T03:10:46;97715.59;;;16.00;37.99
39729;BME280;25402;42.004;23.088;2022-07-23T03:13:14;97672.06;;;15.73;37.80
39729;BME280;25402;42.004;23.088;2022-07-23T03:15:40;97724.41;;;15.95;37.77
39729;BME280;25402;42.004;23.088;2022-07-23T03:18:08;97727.56;;;15.92;38.03
39729;BME280;25402;42.004;23.088;2022-07-23T03:20:35;97712.72;;;15.81;38.10
39729;BME280;25402;42.004;23.088;2022-07-23T03:23:02;97724.44;;;15.88;38.25
39729;BME280;25402;42.004;23.088;2022-07-23T03:25:28;97703.06;;;15.72;38.25
39729;BME280;25402;42.004;23.088;2022-07-23T03:27:56;97719.84;;;15.82;38.42
39729;BME280;25402;42.004;23.088;2022-07-23T03:30:24;97706.22;;;15.69;38.43
39729;BME280;25402;42.004;23.088;2022-07-23T03:32:51;97724.88;;;15.85;38.19
39729;BME280;25402;42.004;23.088;2022-07-23T03:35:17;97732.19;;;15.91;38.14
39729;BME280;25402;42.004;23.088;2022-07-23T03:37:44;97684.63;;;15.61;37.95
39729;BME280;25402;42.004;23.088;2022-07-23T03:40:11;97738.88;;;15.95;38.21
39729;BME280;25402;42.004;23.088;2022-07-23T03:42:40;97711.44;;;15.84;37.91
39729;BME280;25402;42.004;23.088;2022-07-23T03:45:08;97738.03;;;16.02;38.28
39729;BME280;25402;42.004;23.088;2022-07-23T03:47:36;97735.94;;;15.97;38.31
39729;BME280;25402;42.004;23.088;2022-07-23T03:50:03;97738.59;;;16.17;38.00
39729;BME280;25402;42.004;23.088;2022-07-23T03:52:29;97731.25;;;16.55;37.78
39729;BME280;25402;42.004;23.088;2022-07-23T03:54:56;97722.44;;;16.85;37.40
39729;BME280;25402;42.004;23.088;2022-07-23T03:57:26;97748.06;;;17.40;36.40
39729;BME280;25402;42.004;23.088;2022-07-23T03:59:54;97737.63;;;17.74;35.19
39729;BME280;25402;42.004;23.088;2022-07-23T04:02:20;97752.91;;;18.18;34.55
39729;BME280;25402;42.004;23.088;2022-07-23T04:04:47;97744.38;;;18.44;34.34
39729;BME280;25402;42.004;23.088;2022-07-23T04:07:14;97756.38;;;19.03;33.26
39729;BME280;25402;42.004;23.088;2022-07-23T04:09:40;97737.09;;;19.33;32.86
39729;BME280;25402;42.004;23.088;2022-07-23T04:12:07;97760.84;;;19.86;32.17
39729;BME280;25402;42.004;23.088;2022-07-23T04:14:35;97751.69;;;20.20;31.54
39729;BME280;25402;42.004;23.088;2022-07-23T04:17:01;97759.72;;;20.62;30.92
39729;BME280;25402;42.004;23.088;2022-07-23T04:19:28;97754.03;;;20.97;30.44
39729;BME280;25402;42.004;23.088;2022-07-23T04:21:56;97755.34;;;21.39;29.65
39729;BME280;25402;42.004;23.088;2022-07-23T04:24:22;97760.25;;;21.71;29.00
39729;BME280;25402;42.004;23.088;2022-07-23T04:26:48;97767.28;;;22.00;28.51
39729;BME280;25402;42.004;23.088;2022-07-23T04:29:15;97764.94;;;22.31;28.58
39729;BME280;25402;42.004;23.088;2022-07-23T04:31:42;97768.19;;;22.71;27.96
39729;BME280;25402;42.004;23.088;2022-07-23T04:34:09;97768.88;;;23.10;27.70
39729;BME280;25402;42.004;23.088;2022-07-23T04:36:35;97767.50;;;23.40;27.24
39729;BME280;25402;42.004;23.088;2022-07-23T04:39:01;97757.84;;;23.79;26.33
39729;BME280;25402;42.004;23.088;2022-07-23T04:41:28;97717.31;;;23.90;25.94
39729;BME280;25402;42.004;23.088;2022-07-23T04:43:54;97757.63;;;24.43;25.46
39729;BME280;25402;42.004;23.088;2022-07-23T04:46:21;97770.72;;;24.68;25.20
39729;BME280;25402;42.004;23.088;2022-07-23T04:48:48;97769.72;;;24.94;24.91
39729;BME280;25402;42.004;23.088;2022-07-23T04:51:14;97749.50;;;25.19;24.53
39729;BME280;25402;42.004;23.088;2022-07-23T04:53:41;97753.97;;;25.56;24.37
39729;BME280;25402;42.004;23.088;2022-07-23T04:56:07;97764.16;;;26.06;23.63
39729;BME280;25402;42.004;23.088;2022-07-23T04:58:34;97764.63;;;26.44;22.88
39729;BME280;25402;42.004;23.088;2022-07-23T05:01:00;97761.94;;;26.83;22.50
39729;BME280;25402;42.004;23.088;2022-07-23T05:03:27;97771.84;;;27.38;21.99
39729;BME280;25402;42.004;23.088;2022-07-23T05:05:54;97772.59;;;27.83;21.82
39729;BME280;25402;42.004;23.088;2022-07-23T05:08:21;97758.84;;;28.44;20.66
39729;BME280;25402;42.004;23.088;2022-07-23T05:10:49;97765.53;;;29.04;20.29
39729;BME280;25402;42.004;23.088;2022-07-23T05:13:16;97768.00;;;29.44;19.78
39729;BME280;25402;42.004;23.088;2022-07-23T05:15:42;97774.25;;;29.87;19.36
39729;BME280;25402;42.004;23.088;2022-07-23T05:18:09;97768.50;;;30.10;19.27
39729;BME280;25402;42.004;23.088;2022-07-23T05:20:36;97773.69;;;30.17;19.19
39729;BME280;25402;42.004;23.088;2022-07-23T05:23:03;97771.41;;;30.33;18.73
39729;BME280;25402;42.004;23.088;2022-07-23T05:25:29;97776.78;;;30.29;18.78
39729;BME280;25402;42.004;23.088;2022-07-23T05:27:56;97783.28;;;30.38;18.95
39729;BME280;25402;42.004;23.088;2022-07-23T05:30:22;97788.69;;;30.21;18.92
39729;BME280;25402;42.004;23.088;2022-07-23T05:32:49;97787.63;;;30.17;19.00
39729;BME280;25402;42.004;23.088;2022-07-23T05:35:16;97781.97;;;30.22;18.78
39729;BME280;25402;42.004;23.088;2022-07-23T05:37:43;97785.06;;;30.21;18.57
39729;BME280;25402;42.004;23.088;2022-07-23T05:40:11;97780.63;;;30.06;18.98
39729;BME280;25402;42.004;23.088;2022-07-23T05:42:39;97783.81;;;30.13;18.48
39729;BME280;25402;42.004;23.088;2022-07-23T05:45:07;97773.25;;;30.24;18.32
39729;BME280;25402;42.004;23.088;2022-07-23T05:47:40;97773.44;;;30.00;18.50
39729;BME280;25402;42.004;23.088;2022-07-23T05:50:07;97777.00;;;30.19;18.72
39729;BME280;25402;42.004;23.088;2022-07-23T05:52:33;97754.06;;;30.36;18.20
39729;BME280;25402;42.004;23.088;2022-07-23T05:54:59;97780.94;;;30.59;17.92
39729;BME280;25402;42.004;23.088;2022-07-23T05:57:27;97756.03;;;30.63;17.84
39729;BME280;25402;42.004;23.088;2022-07-23T05:59:53;97773.25;;;30.78;17.55
39729;BME280;25402;42.004;23.088;2022-07-23T06:02:20;97774.59;;;30.81;17.44
39729;BME280;25402;42.004;23.088;2022-07-23T06:04:48;97764.78;;;30.70;17.72
39729;BME280;25402;42.004;23.088;2022-07-23T06:07:15;97770.69;;;30.82;17.92
39729;BME280;25402;42.004;23.088;2022-07-23T06:09:41;97749.88;;;30.74;18.01
39729;BME280;25402;42.004;23.088;2022-07-23T06:12:08;97771.50;;;30.96;17.80
39729;BME280;25402;42.004;23.088;2022-07-23T06:14:35;97765.88;;;31.10;17.80
39729;BME280;25402;42.004;23.088;2022-07-23T06:17:02;97766.38;;;31.12;18.05
39729;BME280;25402;42.004;23.088;2022-07-23T06:19:28;97764.94;;;31.15;17.64
39729;BME280;25402;42.004;23.088;2022-07-23T06:21:55;97760.03;;;31.20;17.64
39729;BME280;25402;42.004;23.088;2022-07-23T06:24:21;97758.44;;;31.28;17.63
39729;BME280;25402;42.004;23.088;2022-07-23T06:26:47;97765.06;;;31.32;17.41
39729;BME280;25402;42.004;23.088;2022-07-23T06:29:14;97756.84;;;31.35;17.71
39729;BME280;25402;42.004;23.088;2022-07-23T06:31:41;97755.53;;;31.55;17.43
39729;BME280;25402;42.004;23.088;2022-07-23T06:34:08;97757.41;;;31.60;17.62
39729;BME280;25402;42.004;23.088;2022-07-23T06:36:34;97755.44;;;31.60;17.49
39729;BME280;25402;42.004;23.088;2022-07-23T06:39:00;97748.09;;;31.73;17.45
39729;BME280;25402;42.004;23.088;2022-07-23T06:41:27;97746.50;;;31.80;17.58
39729;BME280;25402;42.004;23.088;2022-07-23T06:43:54;97735.81;;;31.83;17.61
39729;BME280;25402;42.004;23.088;2022-07-23T06:46:20;97744.63;;;31.98;17.16
39729;BME280;25402;42.004;23.088;2022-07-23T06:48:47;97731.31;;;31.95;17.46
39729;BME280;25402;42.004;23.088;2022-07-23T06:51:14;97742.91;;;32.11;17.02
39729;BME280;25402;42.004;23.088;2022-07-23T06:53:41;97734.25;;;31.99;17.53
39729;BME280;25402;42.004;23.088;2022-07-23T06:56:07;97736.63;;;32.14;17.40
39729;BME280;25402;42.004;23.088;2022-07-23T06:58:34;97718.19;;;32.13;17.05
39729;BME280;25402;42.004;23.088;2022-07-23T07:01:01;97738.09;;;32.11;17.42
39729;BME280;25402;42.004;23.088;2022-07-23T07:03:27;97729.66;;;32.25;17.22
39729;BME280;25402;42.004;23.088;2022-07-23T07:05:54;97711.13;;;32.15;17.17
39729;BME280;25402;42.004;23.088;2022-07-23T07:08:23;97723.22;;;32.33;16.89
39729;BME280;25402;42.004;23.088;2022-07-23T07:10:49;97721.75;;;32.36;17.02
39729;BME280;25402;42.004;23.088;2022-07-23T07:13:16;97704.78;;;32.32;17.42
39729;BME280;25402;42.004;23.088;2022-07-23T07:15:42;97717.69;;;32.50;17.16
39729;BME280;25402;42.004;23.088;2022-07-23T07:18:09;97708.78;;;32.48;16.93
39729;BME280;25402;42.004;23.088;2022-07-23T07:20:36;97719.00;;;32.53;17.40
39729;BME280;25402;42.004;23.088;2022-07-23T07:23:03;97711.75;;;32.52;17.40
39729;BME280;25402;42.004;23.088;2022-07-23T07:25:29;97703.03;;;32.54;17.32
39729;BME280;25402;42.004;23.088;2022-07-23T07:27:56;97704.31;;;32.39;17.09
39729;BME280;25402;42.004;23.088;2022-07-23T07:30:22;97695.91;;;32.39;17.43
39729;BME280;25402;42.004;23.088;2022-07-23T07:32:49;97696.56;;;32.36;17.45
39729;BME280;25402;42.004;23.088;2022-07-23T07:35:16;97702.84;;;32.41;17.46
39729;BME280;25402;42.004;23.088;2022-07-23T07:37:42;97678.56;;;32.20;17.21
39729;BME280;25402;42.004;23.088;2022-07-23T07:40:10;97690.06;;;32.18;17.66
39729;BME280;25402;42.004;23.088;2022-07-23T07:42:44;97687.34;;;32.35;17.26
39729;BME280;25402;42.004;23.088;2022-07-23T07:45:10;97680.44;;;32.41;17.28
39729;BME280;25402;42.004;23.088;2022-07-23T07:47:37;97683.91;;;32.47;17.32
39729;BME280;25402;42.004;23.088;2022-07-23T07:50:04;97676.00;;;32.49;17.22
39729;BME280;25402;42.004;23.088;2022-07-23T07:52:31;97675.31;;;32.35;17.19
39729;BME280;25402;42.004;23.088;2022-07-23T07:54:57;97660.31;;;32.31;17.55
39729;BME280;25402;42.004;23.088;2022-07-23T07:57:24;97663.44;;;32.29;17.51
39729;BME280;25402;42.004;23.088;2022-07-23T07:59:51;97641.22;;;32.24;16.86
39729;BME280;25402;42.004;23.088;2022-07-23T08:02:17;97663.81;;;32.45;17.12
39729;BME280;25402;42.004;23.088;2022-07-23T08:04:44;97653.28;;;32.42;17.18
39729;BME280;25402;42.004;23.088;2022-07-23T08:07:10;97652.25;;;32.29;17.21
39729;BME280;25402;42.004;23.088;2022-07-23T08:09:37;97644.13;;;32.10;17.46
39729;BME280;25402;42.004;23.088;2022-07-23T08:12:04;97642.63;;;32.13;17.03
39729;BME280;25402;42.004;23.088;2022-07-23T08:14:31;97642.31;;;32.06;17.13
39729;BME280;25402;42.004;23.088;2022-07-23T08:16:58;97649.03;;;32.05;17.42
39729;BME280;25402;42.004;23.088;2022-07-23T08:19:24;97645.44;;;32.13;17.16
39729;BME280;25402;42.004;23.088;2022-07-23T08:21:51;97640.00;;;32.16;16.71
39729;BME280;25402;42.004;23.088;2022-07-23T08:24:17;97641.66;;;32.17;16.59
39729;BME280;25402;42.004;23.088;2022-07-23T08:26:44;97635.63;;;32.33;16.47
39729;BME280;25402;42.004;23.088;2022-07-23T08:29:10;97627.41;;;32.36;16.48
39729;BME280;25402;42.004;23.088;2022-07-23T08:31:37;97624.09;;;32.43;16.22
39729;BME280;25402;42.004;23.088;2022-07-23T08:34:05;97627.09;;;32.46;16.15
39729;BME280;25402;42.004;23.088;2022-07-23T08:36:32;97627.59;;;32.57;16.04
39729;BME280;25402;42.004;23.088;2022-07-23T08:38:59;97620.84;;;32.58;15.76
39729;BME280;25402;42.004;23.088;2022-07-23T08:41:27;97621.50;;;32.64;15.36
39729;BME280;25402;42.004;23.088;2022-07-23T08:43:55;97620.03;;;32.75;15.58
39729;BME280;25402;42.004;23.088;2022-07-23T08:46:23;97617.56;;;32.82;15.46
39729;BME280;25402;42.004;23.088;2022-07-23T08:48:54;97613.91;;;32.90;15.21
39729;BME280;25402;42.004;23.088;2022-07-23T08:51:21;97615.56;;;32.91;15.00
39729;BME280;25402;42.004;23.088;2022-07-23T08:53:52;97610.63;;;33.05;15.14
39729;BME280;25402;42.004;23.088;2022-07-23T08:56:18;97599.91;;;33.16;14.95
39729;BME280;25402;42.004;23.088;2022-07-23T08:58:45;97591.13;;;33.26;14.76
39729;BME280;25402;42.004;23.088;2022-07-23T09:01:11;97593.09;;;33.34;14.38
39729;BME280;25402;42.004;23.088;2022-07-23T09:03:38;97594.91;;;33.47;14.71
39729;BME280;25402;42.004;23.088;2022-07-23T09:06:06;97591.03;;;33.61;14.79
39729;BME280;25402;42.004;23.088;2022-07-23T09:08:37;97588.84;;;33.75;14.78
39729;BME280;25402;42.004;23.088;2022-07-23T09:11:05;97583.53;;;33.82;14.61
39729;BME280;25402;42.004;23.088;2022-07-23T09:13:35;97590.75;;;33.92;14.41
39729;BME280;25402;42.004;23.088;2022-07-23T09:16:05;97580.16;;;33.97;14.33
39729;BME280;25402;42.004;23.088;2022-07-23T09:18:35;97564.16;;;33.98;14.49
39729;BME280;25402;42.004;23.088;2022-07-23T09:21:15;97585.19;;;34.12;14.07
39729;BME280;25402;42.004;23.088;2022-07-23T09:23:44;97573.88;;;34.21;14.67
39729;BME280;25402;42.004;23.088;2022-07-23T09:26:19;97586.47;;;34.44;14.67
39729;BME280;25402;42.004;23.088;2022-07-23T09:28:52;97579.75;;;34.58;14.68
39729;BME280;25402;42.004;23.088;2022-07-23T09:31:19;97573.66;;;34.76;14.43
39729;BME280;25402;42.004;23.088;2022-07-23T09:33:46;97575.22;;;34.86;14.44
39729;BME280;25402;42.004;23.088;2022-07-23T09:36:13;97569.41;;;35.03;14.70
39729;BME280;25402;42.004;23.088;2022-07-23T09:38:48;97565.38;;;35.13;14.72
39729;BME280;25402;42.004;23.088;2022-07-23T09:41:15;97538.06;;;35.13;14.43
39729;BME280;25402;42.004;23.088;2022-07-23T09:43:42;97563.19;;;35.43;14.52
39729;BME280;25402;42.004;23.088;2022-07-23T09:46:22;97548.72;;;35.53;14.29
39729;BME280;25402;42.004;23.088;2022-07-23T09:48:50;97546.72;;;35.66;13.79
39729;BME280;25402;42.004;23.088;2022-07-23T09:51:18;97540.72;;;35.79;13.44
39729;BME280;25402;42.004;23.088;2022-07-23T09:53:49;97532.22;;;35.88;12.99
39729;BME280;25402;42.004;23.088;2022-07-23T09:56:15;97521.97;;;35.59;12.82
39729;BME280;25402;42.004;23.088;2022-07-23T09:58:44;97531.47;;;35.79;12.95
39729;BME280;25402;42.004;23.088;2022-07-23T10:01:14;97525.72;;;36.00;12.70
39729;BME280;25402;42.004;23.088;2022-07-23T10:03:42;97521.38;;;36.14;12.62
39729;BME280;25402;42.004;23.088;2022-07-23T10:06:09;97515.50;;;36.07;12.86
39729;BME280;25402;42.004;23.088;2022-07-23T10:08:41;97519.84;;;36.17;13.26
39729;BME280;25402;42.004;23.088;2022-07-23T10:11:09;97517.22;;;36.36;13.15
39729;BME280;25402;42.004;23.088;2022-07-23T10:13:37;97513.28;;;36.53;12.68
39729;BME280;25402;42.004;23.088;2022-07-23T10:16:24;97511.34;;;36.69;12.46
39729;BME280;25402;42.004;23.088;2022-07-23T10:18:51;97512.19;;;36.85;12.42
39729;BME280;25402;42.004;23.088;2022-07-23T10:21:24;97503.44;;;37.03;12.26
39729;BME280;25402;42.004;23.088;2022-07-23T10:24:01;97489.19;;;37.11;12.33
39729;BME280;25402;42.004;23.088;2022-07-23T10:26:36;97502.94;;;37.28;12.40
39729;BME280;25402;42.004;23.088;2022-07-23T10:29:12;97496.84;;;37.26;11.92
39729;BME280;25402;42.004;23.088;2022-07-23T10:31:49;97494.13;;;37.46;11.54
39729;BME280;25402;42.004;23.088;2022-07-23T10:34:21;97465.63;;;37.51;11.70
39729;BME280;25402;42.004;23.088;2022-07-23T10:36:49;97492.38;;;37.57;11.95
39729;BME280;25402;42.004;23.088;2022-07-23T10:39:22;97487.91;;;37.24;11.97
39729;BME280;25402;42.004;23.088;2022-07-23T10:41:50;97488.25;;;37.39;12.01
39729;BME280;25402;42.004;23.088;2022-07-23T10:44:19;97481.25;;;37.33;11.10
39729;BME280;25402;42.004;23.088;2022-07-23T10:46:55;97464.69;;;37.47;11.44
39729;BME280;25402;42.004;23.088;2022-07-23T10:49:39;97476.06;;;37.66;11.27
39729;BME280;25402;42.004;23.088;2022-07-23T10:52:25;97463.44;;;37.60;11.21
39729;BME280;25402;42.004;23.088;2022-07-23T10:54:57;97461.53;;;37.48;10.87
39729;BME280;25402;42.004;23.088;2022-07-23T10:57:48;97450.34;;;37.20;11.14
39729;BME280;25402;42.004;23.088;2022-07-23T11:00:24;97440.88;;;37.44;10.24
39729;BME280;25402;42.004;23.088;2022-07-23T11:02:52;97436.28;;;37.71;10.34
39729;BME280;25402;42.004;23.088;2022-07-23T11:05:19;97436.09;;;37.99;10.15
39729;BME280;25402;42.004;23.088;2022-07-23T11:08:15;97445.13;;;38.05;9.16
39729;BME280;25402;42.004;23.088;2022-07-23T11:10:56;97444.78;;;38.25;9.14
39729;BME280;25402;42.004;23.088;2022-07-23T11:13:37;97429.94;;;38.13;8.35
39729;BME280;25402;42.004;23.088;2022-07-23T11:16:24;97432.97;;;38.20;8.21
39729;BME280;25402;42.004;23.088;2022-07-23T11:19:00;97429.44;;;38.26;8.39
39729;BME280;25402;42.004;23.088;2022-07-23T11:21:48;97421.78;;;38.27;8.38
39729;BME280;25402;42.004;23.088;2022-07-23T11:24:22;97423.78;;;38.26;7.47
39729;BME280;25402;42.004;23.088;2022-07-23T11:26:59;97408.56;;;38.31;7.40
39729;BME280;25402;42.004;23.088;2022-07-23T11:29:42;97417.13;;;38.35;7.76
39729;BME280;25402;42.004;23.088;2022-07-23T11:32:26;97404.91;;;38.50;6.90
39729;BME280;25402;42.004;23.088;2022-07-23T11:34:53;97399.88;;;38.82;6.82
39729;BME280;25402;42.004;23.088;2022-07-23T11:37:29;97400.44;;;39.14;7.45
39729;BME280;25402;42.004;23.088;2022-07-23T11:39:59;97391.69;;;39.22;7.69
39729;BME280;25402;42.004;23.088;2022-07-23T11:42:27;97396.81;;;38.90;7.48
39729;BME280;25402;42.004;23.088;2022-07-23T11:44:53;97374.38;;;38.36;8.36
39729;BME280;25402;42.004;23.088;2022-07-23T11:47:22;97377.13;;;38.33;8.12
39729;BME280;25402;42.004;23.088;2022-07-23T11:49:52;97370.34;;;38.56;7.94
39729;BME280;25402;42.004;23.088;2022-07-23T11:52:19;97357.53;;;38.62;7.83
39729;BME280;25402;42.004;23.088;2022-07-23T11:54:49;97357.53;;;38.62;7.78
39729;BME280;25402;42.004;23.088;2022-07-23T11:57:16;97366.97;;;38.93;7.76
39729;BME280;25402;42.004;23.088;2022-07-23T11:59:43;97360.78;;;39.10;7.75
39729;BME280;25402;42.004;23.088;2022-07-23T12:02:12;97363.16;;;39.08;8.20
39729;BME280;25402;42.004;23.088;2022-07-23T12:04:40;97363.31;;;38.70;8.10
39729;BME280;25402;42.004;23.088;2022-07-23T12:07:25;97355.78;;;39.00;8.20
39729;BME280;25402;42.004;23.088;2022-07-23T12:09:51;97358.56;;;39.23;7.98
39729;BME280;25402;42.004;23.088;2022-07-23T12:12:18;97349.22;;;39.19;8.37
39729;BME280;25402;42.004;23.088;2022-07-23T12:14:49;97340.94;;;38.84;8.53
39729;BME280;25402;42.004;23.088;2022-07-23T12:17:16;97346.97;;;39.05;8.41
39729;BME280;25402;42.004;23.088;2022-07-23T12:19:43;97339.53;;;39.20;8.27
39729;BME280;25402;42.004;23.088;2022-07-23T12:22:10;97332.91;;;39.35;8.03
39729;BME280;25402;42.004;23.088;2022-07-23T12:24:52;97343.50;;;39.42;7.92
39729;BME280;25402;42.004;23.088;2022-07-23T12:27:20;97333.38;;;39.41;8.07
39729;BME280;25402;42.004;23.088;2022-07-23T12:29:48;97328.91;;;39.40;8.13
39729;BME280;25402;42.004;23.088;2022-07-23T12:32:20;97333.00;;;39.42;8.06
39729;BME280;25402;42.004;23.088;2022-07-23T12:34:48;97332.06;;;39.61;7.84
39729;BME280;25402;42.004;23.088;2022-07-23T12:37:29;97312.88;;;39.77;7.65
39729;BME280;25402;42.004;23.088;2022-07-23T12:39:56;97310.66;;;39.93;7.38
39729;BME280;25402;42.004;23.088;2022-07-23T12:42:23;97321.13;;;40.23;7.50
39729;BME280;25402;42.004;23.088;2022-07-23T12:45:07;97315.72;;;40.44;7.66
39729;BME280;25402;42.004;23.088;2022-07-23T12:47:54;97309.31;;;40.54;7.53
39729;BME280;25402;42.004;23.088;2022-07-23T12:50:44;97317.09;;;40.64;7.71
39729;BME280;25402;42.004;23.088;2022-07-23T12:53:15;97310.63;;;40.64;7.28
39729;BME280;25402;42.004;23.088;2022-07-23T12:55:43;97308.66;;;40.68;7.36
39729;BME280;25402;42.004;23.088;2022-07-23T12:58:12;97296.22;;;40.39;7.25